createdAt,value
2022-08-09T00:02:31.130Z,18.60
2022-08-09T00:05:03.725Z,18.60
2022-08-09T00:07:45.462Z,18.50
2022-08-09T00:10:21.244Z,18.40
2022-08-09T00:12:52.265Z,18.40
2022-08-09T00:15:26.546Z,18.30
2022-08-09T00:18:04.573Z,18.30
2022-08-09T00:20:36.901Z,18.30
2022-08-09T00:23:56.599Z,18.30
2022-08-09T00:25:54.784Z,18.30
2022-08-09T00:28:23.427Z,18.20
2022-08-09T00:30:55.620Z,18.30
2022-08-09T00:33:32.631Z,18.30
2022-08-09T00:36:08.967Z,18.30
2022-08-09T00:38:35.572Z,18.40
2022-08-09T00:41:03.391Z,18.30
2022-08-09T00:44:16.317Z,18.30
2022-08-09T00:46:44.119Z,18.30
2022-08-09T00:49:10.952Z,18.20
2022-08-09T00:51:54.201Z,18.20
2022-08-09T00:54:21.635Z,18.20
2022-08-09T00:56:57.968Z,18.10
2022-08-09T00:59:40.355Z,18.10
2022-08-09T01:06:17.805Z,18.10
2022-08-09T01:09:11.802Z,18.10
2022-08-09T01:11:53.436Z,18.00
2022-08-09T01:14:33.382Z,18.00
2022-08-09T01:17:10.874Z,17.90
2022-08-09T01:19:57.067Z,17.80
2022-08-09T01:24:00.541Z,17.80
2022-08-09T01:26:19.296Z,17.70
2022-08-09T01:28:50.280Z,17.80
2022-08-09T01:31:23.416Z,17.70
2022-08-09T01:34:10.175Z,17.70
2022-08-09T01:36:38.677Z,17.70
2022-08-09T01:39:06.791Z,17.70
2022-08-09T01:41:36.229Z,17.70
2022-08-09T01:44:05.500Z,17.70
2022-08-09T01:46:38.193Z,17.70
2022-08-09T01:49:12.901Z,17.70
2022-08-09T01:51:53.551Z,17.70
2022-08-09T01:54:41.964Z,17.70
2022-08-09T01:57:19.011Z,17.60
2022-08-09T01:59:52.547Z,17.60
2022-08-09T02:02:31.125Z,17.60
2022-08-09T02:05:05.434Z,17.40
2022-08-09T02:08:38.706Z,17.50
2022-08-09T02:10:38.352Z,17.50
2022-08-09T02:13:08.687Z,17.50
2022-08-09T02:15:49.311Z,17.40
2022-08-09T02:18:25.138Z,17.30
2022-08-09T02:20:58.822Z,17.40
2022-08-09T02:23:42.838Z,17.40
2022-08-09T02:26:25.253Z,17.30
2022-08-09T02:29:15.672Z,17.30
2022-08-09T02:31:46.328Z,17.30
2022-08-09T02:34:38.608Z,17.20
2022-08-09T02:37:09.189Z,17.20
2022-08-09T02:39:49.968Z,17.20
2022-08-09T02:42:33.283Z,17.30
2022-08-09T02:45:09.357Z,17.30
2022-08-09T02:47:57.314Z,17.30
2022-08-09T02:50:33.096Z,17.10
2022-08-09T02:53:07.757Z,17.10
2022-08-09T02:55:57.267Z,17.10
2022-08-09T02:58:37.008Z,17.00
2022-08-09T03:01:08.277Z,17.00
2022-08-09T03:04:17.390Z,16.90
2022-08-09T03:06:29.128Z,17.00
2022-08-09T03:09:00.270Z,16.90
2022-08-09T03:11:29.943Z,16.90
2022-08-09T03:14:16.794Z,16.90
2022-08-09T03:16:48.111Z,16.90
2022-08-09T03:19:52.769Z,16.90
2022-08-09T03:22:12.143Z,16.80
2022-08-09T03:24:52.268Z,16.80
2022-08-09T03:27:21.593Z,16.80
2022-08-09T03:29:58.226Z,16.80
2022-08-09T03:32:31.115Z,16.80
2022-08-09T03:34:59.553Z,16.80
2022-08-09T03:37:55.566Z,16.80
2022-08-09T03:40:14.510Z,16.70
2022-08-09T03:42:45.012Z,16.70
2022-08-09T03:45:11.817Z,16.80
2022-08-09T03:47:40.183Z,16.80
2022-08-09T03:50:10.847Z,16.80
2022-08-09T03:52:41.791Z,16.70
2022-08-09T03:55:11.229Z,16.70
2022-08-09T03:57:44.795Z,16.80
2022-08-09T04:00:29.230Z,16.70
2022-08-09T04:02:58.829Z,16.60
2022-08-09T04:05:27.820Z,16.60
2022-08-09T04:07:57.572Z,16.60
2022-08-09T04:10:30.212Z,16.50
2022-08-09T04:13:01.365Z,16.60
2022-08-09T04:16:18.063Z,16.60
2022-08-09T04:18:19.468Z,16.60
2022-08-09T04:20:48.747Z,16.60
2022-08-09T04:23:17.302Z,16.80
2022-08-09T04:25:45.008Z,16.70
2022-08-09T04:28:33.122Z,16.60
2022-08-09T04:31:01.000Z,16.60
2022-08-09T04:33:52.157Z,16.60
2022-08-09T04:36:27.333Z,16.60
2022-08-09T04:38:59.320Z,16.60
2022-08-09T04:41:33.026Z,16.60
2022-08-09T04:44:06.361Z,16.60
2022-08-09T04:46:58.153Z,16.60
2022-08-09T04:49:22.297Z,16.70
2022-08-09T04:52:07.845Z,16.70
2022-08-09T04:54:36.435Z,16.80
2022-08-09T04:57:03.869Z,16.80
2022-08-09T04:59:30.914Z,16.80
2022-08-09T05:01:57.613Z,16.80
2022-08-09T05:04:30.643Z,16.80
2022-08-09T05:06:58.546Z,16.80
2022-08-09T05:09:25.151Z,16.90
2022-08-09T05:12:09.587Z,16.90
2022-08-09T05:14:37.849Z,16.90
2022-08-09T05:17:15.285Z,16.80
2022-08-09T05:19:56.724Z,16.90
2022-08-09T05:22:35.904Z,16.90
2022-08-09T05:25:10.810Z,16.90
2022-08-09T05:27:39.045Z,16.90
2022-08-09T05:30:14.319Z,17.00
2022-08-09T05:32:42.040Z,17.00
2022-08-09T05:35:11.297Z,17.00
2022-08-09T05:37:47.511Z,17.00
2022-08-09T05:40:15.232Z,17.10
2022-08-09T05:42:42.924Z,17.10
2022-08-09T05:45:10.780Z,17.10
2022-08-09T05:47:52.387Z,17.20
2022-08-09T05:50:39.762Z,17.20
2022-08-09T05:53:31.656Z,17.20
2022-08-09T05:55:58.432Z,17.20
2022-08-09T05:58:25.069Z,17.20
2022-08-09T06:00:53.366Z,17.30
2022-08-09T06:03:20.572Z,17.30
2022-08-09T06:05:57.245Z,17.40
2022-08-09T06:08:29.609Z,17.40
2022-08-09T06:10:59.225Z,17.40
2022-08-09T06:13:28.621Z,17.50
2022-08-09T06:16:01.742Z,17.50
2022-08-09T06:18:32.416Z,17.40
2022-08-09T06:20:59.473Z,17.50
2022-08-09T06:23:57.874Z,17.60
2022-08-09T06:26:21.185Z,17.70
2022-08-09T06:29:00.299Z,17.70
2022-08-09T06:31:30.801Z,17.70
2022-08-09T06:33:58.318Z,17.80
2022-08-09T06:36:27.255Z,17.80
2022-08-09T06:38:57.033Z,17.90
2022-08-09T06:41:24.927Z,17.90
2022-08-09T06:44:14.243Z,17.90
2022-08-09T06:46:45.366Z,18.00
2022-08-09T06:49:12.626Z,18.00
2022-08-09T06:51:49.151Z,18.00
2022-08-09T06:54:15.787Z,18.10
2022-08-09T06:56:46.290Z,18.20
2022-08-09T07:00:57.038Z,18.20
2022-08-09T07:02:04.800Z,18.20
2022-08-09T07:04:31.931Z,18.30
2022-08-09T07:07:00.390Z,18.40
2022-08-09T07:09:56.022Z,18.40
2022-08-09T07:12:17.947Z,18.40
2022-08-09T07:14:51.138Z,18.50
2022-08-09T07:17:19.919Z,18.60
2022-08-09T07:19:47.904Z,18.50
2022-08-09T07:22:17.440Z,18.70
2022-08-09T07:24:49.563Z,18.70
2022-08-09T07:27:33.651Z,18.70
2022-08-09T07:30:02.148Z,18.80
2022-08-09T07:32:32.819Z,18.90
2022-08-09T07:35:12.043Z,18.90
2022-08-09T07:37:42.769Z,18.90
2022-08-09T07:40:17.166Z,19.00
2022-08-09T07:43:03.377Z,19.00
2022-08-09T07:45:41.761Z,19.10
2022-08-09T07:48:25.384Z,19.30
2022-08-09T07:51:09.935Z,19.30
2022-08-09T07:54:06.607Z,19.30
2022-08-09T07:56:33.592Z,19.50
2022-08-09T07:59:00.216Z,19.60
2022-08-09T08:01:33.083Z,19.70
2022-08-09T08:04:02.308Z,19.80
2022-08-09T08:06:31.801Z,19.80
2022-08-09T08:09:04.590Z,19.90
2022-08-09T08:12:09.796Z,20.10
2022-08-09T08:14:18.944Z,20.20
2022-08-09T08:17:01.101Z,20.30
2022-08-09T08:19:34.739Z,20.40
2022-08-09T08:22:01.745Z,20.50
2022-08-09T08:24:32.294Z,20.70
2022-08-09T08:27:16.303Z,20.60
2022-08-09T08:29:48.751Z,20.90
2022-08-09T08:32:24.573Z,21.00
2022-08-09T08:34:59.000Z,21.10
2022-08-09T08:37:26.698Z,21.20
2022-08-09T08:40:09.383Z,21.40
2022-08-09T08:42:38.208Z,21.40
2022-08-09T08:45:13.791Z,21.50
2022-08-09T08:47:42.819Z,21.50
2022-08-09T08:50:15.513Z,21.60
2022-08-09T08:52:58.498Z,21.60
2022-08-09T08:55:27.185Z,21.70
2022-08-09T08:57:58.293Z,21.70
2022-08-09T09:00:30.524Z,21.90
2022-08-09T09:03:11.233Z,21.90
2022-08-09T09:05:58.415Z,21.90
2022-08-09T09:08:31.808Z,21.70
2022-08-09T09:11:04.234Z,21.50
2022-08-09T09:13:47.238Z,21.60
2022-08-09T09:16:30.931Z,21.60
2022-08-09T09:22:26.869Z,21.60
2022-08-09T09:26:01.306Z,21.70
2022-08-09T09:28:05.507Z,21.70
2022-08-09T09:30:41.347Z,21.70
2022-08-09T09:33:15.308Z,21.90
2022-08-09T09:36:02.679Z,21.90
2022-08-09T09:38:53.075Z,21.90
2022-08-09T09:41:32.870Z,21.90
2022-08-09T09:44:11.599Z,22.00
2022-08-09T09:46:51.594Z,22.30
2022-08-09T09:49:32.299Z,22.10
2022-08-09T09:52:16.259Z,22.10
2022-08-09T09:55:24.451Z,22.00
2022-08-09T09:58:19.194Z,22.80
2022-08-09T10:00:54.597Z,23.30
2022-08-09T10:03:40.137Z,23.50
2022-08-09T10:06:07.122Z,23.90
2022-08-09T10:08:54.199Z,23.90
2022-08-09T10:12:01.412Z,23.90
2022-08-09T10:14:33.164Z,23.90
2022-08-09T10:17:50.876Z,24.20
2022-08-09T10:19:58.938Z,25.20
2022-08-09T10:22:34.694Z,24.40
2022-08-09T10:25:10.968Z,24.60
2022-08-09T10:27:56.919Z,24.60
2022-08-09T10:34:07.935Z,24.50
2022-08-09T10:36:01.278Z,24.70
2022-08-09T10:38:55.510Z,24.90
2022-08-09T10:41:18.668Z,25.10
2022-08-09T10:43:58.766Z,25.10
2022-08-09T10:46:57.777Z,25.00
2022-08-09T10:49:51.698Z,24.80
2022-08-09T10:52:29.164Z,24.40
2022-08-09T10:55:02.771Z,24.90
2022-08-09T10:57:37.746Z,24.90
2022-08-09T11:00:35.809Z,24.60
2022-08-09T11:03:46.777Z,24.70
2022-08-09T11:06:21.118Z,24.40
2022-08-09T11:08:53.048Z,24.80
2022-08-09T11:11:21.982Z,24.80
2022-08-09T11:14:28.187Z,24.80
2022-08-09T11:16:55.998Z,25.00
2022-08-09T11:20:12.651Z,24.90
2022-08-09T11:22:45.018Z,25.10
2022-08-09T11:25:26.136Z,25.00
2022-08-09T11:28:34.513Z,25.60
2022-08-09T11:31:50.196Z,25.50
2022-08-09T11:34:36.149Z,25.60
2022-08-09T11:37:07.164Z,25.80
2022-08-09T11:40:01.655Z,26.10
2022-08-09T11:42:40.787Z,25.80
2022-08-09T11:45:42.196Z,25.90
2022-08-09T11:48:24.934Z,25.70
2022-08-09T11:52:56.780Z,25.90
2022-08-09T11:54:27.589Z,26.10
2022-08-09T11:58:02.475Z,26.10
2022-08-09T12:00:33.769Z,25.90
2022-08-09T12:03:50.568Z,25.70
2022-08-09T12:05:49.017Z,25.60
2022-08-09T12:08:21.609Z,26.10
2022-08-09T12:10:52.926Z,26.50
2022-08-09T12:14:07.017Z,26.20
2022-08-09T12:16:38.376Z,26.60
2022-08-09T12:19:09.164Z,27.00
2022-08-09T12:21:39.253Z,27.30
2022-08-09T12:24:22.348Z,27.20
2022-08-09T12:28:59.247Z,27.20
2022-08-09T12:29:52.487Z,27.50
2022-08-09T12:32:26.960Z,27.60
2022-08-09T12:35:04.595Z,27.20
2022-08-09T12:37:50.741Z,26.70
2022-08-09T12:40:21.048Z,27.40
2022-08-09T12:42:50.446Z,27.80
2022-08-09T12:45:34.471Z,27.50
2022-08-09T12:48:10.709Z,27.70
2022-08-09T12:50:47.849Z,28.10
2022-08-09T12:53:56.214Z,28.40
2022-08-09T12:56:39.597Z,28.20
2022-08-09T12:59:15.123Z,28.30
2022-08-09T13:01:49.103Z,28.10
2022-08-09T13:04:36.360Z,28.30
2022-08-09T13:07:19.610Z,28.40
2022-08-09T13:09:55.166Z,28.70
2022-08-09T13:12:30.265Z,28.60
2022-08-09T13:15:08.078Z,27.80
2022-08-09T13:17:58.792Z,27.70
2022-08-09T13:20:37.214Z,27.70
2022-08-09T13:24:17.050Z,27.50
2022-08-09T13:25:54.723Z,27.70
2022-08-09T13:28:33.837Z,27.40
2022-08-09T13:32:17.416Z,26.80
2022-08-09T13:33:58.874Z,27.50
2022-08-09T13:36:40.706Z,27.40
2022-08-09T13:41:46.434Z,27.90
2022-08-09T13:42:10.994Z,28.30
2022-08-09T13:44:42.120Z,28.40
2022-08-09T13:47:26.788Z,27.90
2022-08-09T13:50:01.415Z,28.50
2022-08-09T13:52:29.901Z,28.60
2022-08-09T13:55:00.935Z,28.50
2022-08-09T13:57:39.696Z,28.50
2022-08-09T14:00:28.335Z,28.50
2022-08-09T14:03:04.373Z,28.50
2022-08-09T14:05:59.218Z,28.50
2022-08-09T14:08:30.064Z,28.40
2022-08-09T14:10:57.323Z,28.20
2022-08-09T14:14:15.857Z,28.20
2022-08-09T14:16:15.092Z,28.00
2022-08-09T14:18:45.714Z,27.90
2022-08-09T14:21:17.955Z,27.70
2022-08-09T14:23:55.232Z,26.90
2022-08-09T14:26:30.262Z,26.60
2022-08-09T14:29:03.642Z,27.30
2022-08-09T14:31:49.842Z,27.60
2022-08-09T14:34:27.295Z,27.50
2022-08-09T14:37:06.147Z,27.50
2022-08-09T14:39:45.090Z,27.20
2022-08-09T14:42:30.166Z,26.60
2022-08-09T14:44:59.873Z,26.40
2022-08-09T14:47:45.338Z,26.90
2022-08-09T14:50:16.252Z,27.40
2022-08-09T14:52:49.989Z,27.40
2022-08-09T14:55:19.929Z,27.40
2022-08-09T14:57:47.710Z,27.50
2022-08-09T15:00:16.142Z,27.40
2022-08-09T15:02:42.873Z,27.20
2022-08-09T15:05:16.124Z,27.10
2022-08-09T15:07:45.403Z,27.30
2022-08-09T15:10:21.652Z,27.30
2022-08-09T15:12:52.345Z,27.30
2022-08-09T15:15:19.023Z,27.20
2022-08-09T15:17:51.778Z,27.20
2022-08-09T15:22:00.667Z,27.20
2022-08-09T15:23:55.883Z,27.30
2022-08-09T15:25:55.688Z,26.80
2022-08-09T15:28:28.509Z,27.00
2022-08-09T15:31:13.387Z,26.90
2022-08-09T15:34:17.440Z,26.60
2022-08-09T15:36:30.924Z,26.60
2022-08-09T15:38:58.813Z,26.80
2022-08-09T15:41:31.245Z,26.80
2022-08-09T15:44:02.601Z,26.70
2022-08-09T15:46:34.373Z,26.40
2022-08-09T15:49:22.627Z,26.70
2022-08-09T15:52:03.230Z,26.50
2022-08-09T15:54:52.664Z,26.70
2022-08-09T15:57:34.711Z,26.70
2022-08-09T16:00:14.795Z,26.50
2022-08-09T16:02:53.483Z,26.50
2022-08-09T16:05:23.645Z,26.10
2022-08-09T16:07:50.848Z,26.20
2022-08-09T16:10:55.030Z,26.50
2022-08-09T16:13:05.329Z,26.70
2022-08-09T16:16:11.826Z,26.60
2022-08-09T16:18:34.873Z,26.70
2022-08-09T16:21:01.457Z,26.50
2022-08-09T16:23:28.225Z,26.80
2022-08-09T16:26:00.796Z,27.00
2022-08-09T16:28:29.486Z,26.90
2022-08-09T16:30:59.367Z,26.90
2022-08-09T16:33:26.916Z,26.60
2022-08-09T16:35:58.133Z,26.60
2022-08-09T16:38:27.476Z,26.50
2022-08-09T16:40:54.498Z,26.10
2022-08-09T16:43:23.047Z,26.20
2022-08-09T16:45:53.391Z,26.40
2022-08-09T16:48:40.920Z,26.50
2022-08-09T16:51:13.632Z,26.40
2022-08-09T16:54:02.422Z,26.20
2022-08-09T16:56:30.778Z,26.20
2022-08-09T16:58:58.235Z,26.10
2022-08-09T17:01:25.780Z,26.00
2022-08-09T17:03:53.295Z,25.80
2022-08-09T17:06:31.898Z,26.00
2022-08-09T17:09:17.885Z,26.10
2022-08-09T17:11:51.380Z,26.10
2022-08-09T17:14:26.577Z,26.10
2022-08-09T17:16:55.946Z,26.80
2022-08-09T17:19:22.549Z,25.90
2022-08-09T17:21:54.437Z,26.00
2022-08-09T17:24:30.624Z,26.00
2022-08-09T17:26:58.183Z,26.10
2022-08-09T17:29:25.289Z,26.10
2022-08-09T17:32:00.814Z,25.80
2022-08-09T17:35:07.454Z,25.80
2022-08-09T17:37:19.598Z,25.50
2022-08-09T17:39:53.222Z,25.30
2022-08-09T17:42:41.485Z,25.30
2022-08-09T17:45:23.816Z,25.30
2022-08-09T17:48:02.603Z,25.30
2022-08-09T17:50:36.878Z,25.20
2022-08-09T17:53:19.275Z,25.20
2022-08-09T17:55:50.242Z,25.00
2022-08-09T17:58:18.959Z,25.10
2022-08-09T18:00:47.964Z,25.20
2022-08-09T18:03:15.386Z,25.10
2022-08-09T18:05:44.807Z,25.00
2022-08-09T18:08:13.321Z,24.80
2022-08-09T18:10:45.970Z,24.90
2022-08-09T18:13:43.191Z,24.60
2022-08-09T18:16:09.310Z,24.70
2022-08-09T18:18:36.334Z,24.70
2022-08-09T18:21:21.465Z,24.70
2022-08-09T18:24:11.543Z,24.60
2022-08-09T18:26:37.904Z,24.60
2022-08-09T18:30:40.621Z,24.60
2022-08-09T18:31:55.672Z,24.40
2022-08-09T18:34:23.901Z,24.30
2022-08-09T18:36:50.951Z,24.30
2022-08-09T18:39:22.175Z,24.30
2022-08-09T18:41:53.395Z,24.20
2022-08-09T18:44:26.564Z,24.10
2022-08-09T18:47:05.032Z,24.10
2022-08-09T18:49:43.448Z,24.10
2022-08-09T18:52:16.093Z,24.00
2022-08-09T18:54:52.182Z,23.80
2022-08-09T18:57:22.416Z,23.90
2022-08-09T18:59:55.080Z,23.80
2022-08-09T19:02:31.854Z,23.90
2022-08-09T19:05:19.747Z,23.90
2022-08-09T19:08:04.298Z,23.90
2022-08-09T19:10:39.360Z,23.90
2022-08-09T19:13:22.235Z,23.80
2022-08-09T19:15:51.277Z,23.80
2022-08-09T19:18:33.367Z,23.70
2022-08-09T19:21:03.324Z,23.70
2022-08-09T19:24:35.889Z,23.70
2022-08-09T19:26:19.392Z,23.70
2022-08-09T19:29:01.350Z,23.60
2022-08-09T19:31:30.518Z,23.50
2022-08-09T19:34:21.370Z,23.50
2022-08-09T19:36:50.877Z,23.40
2022-08-09T19:39:17.574Z,23.30
2022-08-09T19:41:48.559Z,23.30
2022-08-09T19:44:17.682Z,23.20
2022-08-09T19:46:49.329Z,23.20
2022-08-09T19:50:06.678Z,23.20
2022-08-09T19:52:04.664Z,23.10
2022-08-09T19:54:31.437Z,23.00
2022-08-09T19:56:58.959Z,23.00
2022-08-09T19:59:57.452Z,22.90
2022-08-09T20:04:07.235Z,22.90
2022-08-09T20:05:10.299Z,22.80
2022-08-09T20:07:59.545Z,22.70
2022-08-09T20:10:36.888Z,22.70
2022-08-09T20:13:05.523Z,22.70
2022-08-09T20:16:35.104Z,22.60
2022-08-09T20:18:20.201Z,22.60
2022-08-09T20:20:51.014Z,22.50
2022-08-09T20:23:19.379Z,22.50
2022-08-09T20:25:52.079Z,22.50
2022-08-09T20:28:27.542Z,22.40
2022-08-09T20:31:02.644Z,22.40
2022-08-09T20:33:38.980Z,22.30
2022-08-09T20:36:10.642Z,22.30
2022-08-09T20:41:35.003Z,22.30
2022-08-09T20:44:02.589Z,22.20
2022-08-09T20:46:43.374Z,22.20
2022-08-09T20:49:16.104Z,22.20
2022-08-09T20:51:50.717Z,22.10
2022-08-09T20:54:18.112Z,22.10
2022-08-09T20:56:46.818Z,22.00
2022-08-09T20:59:17.098Z,22.00
2022-08-09T21:01:49.818Z,21.90
2022-08-09T21:05:52.594Z,21.90
2022-08-09T21:07:11.360Z,21.80
2022-08-09T21:09:45.730Z,22.00
2022-08-09T21:14:48.403Z,21.80
2022-08-09T21:18:11.942Z,21.70
2022-08-09T21:20:18.782Z,21.70
2022-08-09T21:22:53.854Z,21.70
2022-08-09T21:25:44.185Z,21.60
2022-08-09T21:28:33.290Z,21.60
2022-08-09T21:31:16.440Z,21.60
2022-08-09T21:33:45.970Z,21.50
2022-08-09T21:36:18.087Z,21.50
2022-08-09T21:38:45.609Z,21.40
2022-08-09T21:41:17.744Z,21.50
2022-08-09T21:43:57.552Z,21.50
2022-08-09T21:46:24.926Z,21.50
2022-08-09T21:48:52.237Z,21.50
2022-08-09T21:51:24.431Z,21.40
2022-08-09T21:54:03.171Z,21.40
2022-08-09T21:56:43.043Z,21.40
2022-08-09T21:59:11.623Z,21.40
2022-08-09T22:01:59.361Z,21.40
2022-08-09T22:04:57.363Z,21.40
2022-08-09T22:07:35.341Z,21.40
2022-08-09T22:10:05.273Z,21.40
2022-08-09T22:12:32.174Z,21.30
2022-08-09T22:14:59.139Z,21.30
2022-08-09T22:17:27.656Z,21.30
2022-08-09T22:20:00.625Z,21.30
2022-08-09T22:22:29.104Z,21.30
2022-08-09T22:26:07.646Z,21.30
2022-08-09T22:27:42.413Z,21.30
2022-08-09T22:30:10.156Z,21.20
2022-08-09T22:32:37.432Z,21.30
2022-08-09T22:35:06.889Z,21.20
2022-08-09T22:38:06.669Z,21.30
2022-08-09T22:40:35.001Z,21.20
2022-08-09T22:43:16.113Z,21.20
2022-08-09T22:48:15.375Z,21.20
2022-08-09T22:48:36.518Z,21.20
2022-08-09T22:51:10.688Z,21.10
2022-08-09T22:54:01.082Z,21.10
2022-08-09T22:56:33.276Z,21.10
2022-08-09T22:59:05.815Z,21.00
2022-08-09T23:01:48.588Z,21.00
2022-08-09T23:04:15.286Z,21.00
2022-08-09T23:07:02.388Z,21.00
2022-08-09T23:09:28.970Z,21.00
2022-08-09T23:11:55.774Z,20.90
2022-08-09T23:14:37.379Z,21.00
2022-08-09T23:17:09.188Z,20.90
2022-08-09T23:20:06.389Z,21.00
2022-08-09T23:22:22.399Z,20.90
2022-08-09T23:24:49.253Z,20.80
2022-08-09T23:27:16.053Z,20.80
2022-08-09T23:29:42.849Z,20.80
2022-08-09T23:32:09.501Z,20.80
2022-08-09T23:34:36.683Z,20.70
2022-08-09T23:37:04.268Z,20.70
2022-08-09T23:39:30.947Z,20.60
2022-08-09T23:41:57.539Z,20.50
2022-08-09T23:44:24.145Z,20.50
2022-08-09T23:46:56.049Z,20.50
2022-08-09T23:49:25.154Z,20.50
2022-08-09T23:51:52.925Z,20.50
2022-08-09T23:54:19.934Z,20.50
2022-08-09T23:56:54.295Z,20.50
2022-08-09T23:59:23.107Z,20.40
